createdAt,value
2018-09-16T00:00:06.322Z,0.00
2018-09-16T00:01:06.303Z,0.00
2018-09-16T00:02:06.282Z,0.00
2018-09-16T00:03:06.258Z,0.00
2018-09-16T00:04:06.243Z,0.00
2018-09-16T00:05:06.221Z,0.00
2018-09-16T00:06:06.200Z,0.00
2018-09-16T00:07:06.178Z,0.00
2018-09-16T00:08:06.165Z,0.00
2018-09-16T00:09:06.135Z,0.00
2018-09-16T00:10:06.116Z,0.00
2018-09-16T00:11:06.094Z,0.00
2018-09-16T00:12:06.085Z,0.00
2018-09-16T00:13:06.055Z,0.00
2018-09-16T00:14:06.041Z,0.00
2018-09-16T00:15:06.015Z,0.00
2018-09-16T00:16:05.992Z,0.00
2018-09-16T00:17:05.971Z,0.00
2018-09-16T00:18:05.951Z,0.00
2018-09-16T00:19:05.930Z,0.00
2018-09-16T00:20:05.909Z,0.00
2018-09-16T00:21:05.912Z,0.00
2018-09-16T00:22:05.867Z,0.00
2018-09-16T00:23:05.851Z,0.00
2018-09-16T00:24:05.834Z,0.00
2018-09-16T00:25:05.811Z,0.00
2018-09-16T00:26:05.785Z,0.00
2018-09-16T00:27:05.764Z,0.00
2018-09-16T00:28:05.747Z,0.00
2018-09-16T00:29:05.722Z,0.00
2018-09-16T00:30:05.698Z,0.00
2018-09-16T00:31:05.681Z,0.00
2018-09-16T00:32:05.664Z,0.00
2018-09-16T00:33:05.641Z,0.00
2018-09-16T00:34:05.622Z,0.00
2018-09-16T00:35:05.600Z,0.00
2018-09-16T00:36:05.590Z,0.00
2018-09-16T00:37:05.556Z,0.00
2018-09-16T00:38:05.543Z,0.00
2018-09-16T00:39:05.514Z,0.00
2018-09-16T00:40:05.496Z,0.00
2018-09-16T00:41:05.476Z,0.00
2018-09-16T00:42:05.452Z,0.00
2018-09-16T00:43:05.430Z,0.00
2018-09-16T00:44:05.412Z,0.00
2018-09-16T00:45:05.393Z,0.00
2018-09-16T00:46:05.382Z,0.00
2018-09-16T00:47:05.362Z,0.00
2018-09-16T00:48:05.327Z,0.00
2018-09-16T00:49:05.308Z,0.00
2018-09-16T00:50:05.281Z,0.00
2018-09-16T00:51:05.268Z,0.00
2018-09-16T00:52:05.245Z,0.00
2018-09-16T00:53:05.229Z,0.00
2018-09-16T00:54:05.202Z,0.00
2018-09-16T00:55:05.186Z,0.00
2018-09-16T00:56:05.162Z,0.00
2018-09-16T00:57:05.138Z,0.00
2018-09-16T00:58:05.116Z,0.00
2018-09-16T00:59:05.100Z,0.00
2018-09-16T01:00:05.071Z,0.00
2018-09-16T01:01:05.055Z,0.00
2018-09-16T01:02:05.037Z,0.00
2018-09-16T01:03:05.014Z,0.00
2018-09-16T01:04:04.996Z,0.00
2018-09-16T01:05:04.970Z,0.00
2018-09-16T01:06:04.955Z,0.00
2018-09-16T01:07:04.942Z,0.00
2018-09-16T01:08:04.922Z,0.00
2018-09-16T01:09:04.890Z,0.00
2018-09-16T01:10:04.873Z,0.00
2018-09-16T01:11:04.849Z,0.00
2018-09-16T01:12:04.826Z,0.00
2018-09-16T01:13:04.803Z,0.00
2018-09-16T01:14:04.784Z,0.00
2018-09-16T01:15:04.762Z,0.00
2018-09-16T01:16:04.779Z,0.00
2018-09-16T01:17:04.723Z,0.00
2018-09-16T01:18:04.706Z,0.00
2018-09-16T01:19:04.679Z,0.00
2018-09-16T01:20:04.663Z,0.00
2018-09-16T01:21:04.638Z,0.00
2018-09-16T01:22:04.618Z,0.00
2018-09-16T01:23:04.597Z,0.00
2018-09-16T01:24:04.576Z,0.00
2018-09-16T01:25:04.558Z,0.00
2018-09-16T01:26:04.527Z,0.00
2018-09-16T01:27:04.522Z,0.00
2018-09-16T01:28:04.495Z,0.00
2018-09-16T01:29:04.472Z,0.00
2018-09-16T01:30:04.448Z,0.00
2018-09-16T01:31:04.430Z,0.00
2018-09-16T01:32:04.409Z,0.00
2018-09-16T01:33:04.387Z,0.00
2018-09-16T01:34:04.374Z,0.00
2018-09-16T01:35:04.349Z,0.00
2018-09-16T01:36:04.324Z,0.00
2018-09-16T01:37:04.305Z,0.00
2018-09-16T01:38:04.281Z,0.00
2018-09-16T01:39:04.264Z,0.00
2018-09-16T01:40:04.248Z,0.00
2018-09-16T01:41:04.222Z,0.00
2018-09-16T01:42:04.197Z,0.00
2018-09-16T01:43:04.171Z,0.00
2018-09-16T01:44:04.156Z,0.00
2018-09-16T01:45:04.139Z,0.00
2018-09-16T01:46:04.112Z,0.00
2018-09-16T01:47:04.095Z,0.00
2018-09-16T01:48:04.073Z,0.00
2018-09-16T01:49:04.053Z,0.00
2018-09-16T01:50:04.022Z,0.00
2018-09-16T01:51:04.005Z,0.00
2018-09-16T01:52:04.002Z,0.00
2018-09-16T01:53:03.974Z,0.00
2018-09-16T01:54:03.944Z,0.00
2018-09-16T01:55:03.935Z,0.00
2018-09-16T01:56:03.926Z,0.00
2018-09-16T01:57:03.886Z,0.00
2018-09-16T01:58:03.865Z,0.00
2018-09-16T01:59:03.843Z,0.00
2018-09-16T02:00:03.816Z,0.00
2018-09-16T02:01:03.806Z,0.00
2018-09-16T02:02:03.781Z,0.00
2018-09-16T02:03:03.759Z,0.00
2018-09-16T02:04:03.736Z,0.00
2018-09-16T02:05:03.714Z,0.00
2018-09-16T02:06:03.696Z,0.00
2018-09-16T02:07:03.675Z,0.00
2018-09-16T02:08:03.654Z,0.00
2018-09-16T02:09:03.630Z,0.00
2018-09-16T02:10:03.613Z,0.00
2018-09-16T02:11:03.591Z,0.00
2018-09-16T02:12:03.570Z,0.00
2018-09-16T02:13:03.550Z,0.00
2018-09-16T02:14:03.527Z,0.00
2018-09-16T02:15:03.509Z,0.00
2018-09-16T02:16:03.485Z,0.00
2018-09-16T02:17:03.470Z,0.00
2018-09-16T02:18:03.446Z,0.00
2018-09-16T02:19:03.421Z,0.00
2018-09-16T02:20:03.404Z,0.00
2018-09-16T02:21:03.385Z,0.00
2018-09-16T02:22:03.360Z,0.00
2018-09-16T02:23:03.337Z,0.00
2018-09-16T02:24:03.319Z,0.00
2018-09-16T02:25:03.303Z,0.00
2018-09-16T02:26:03.277Z,0.00
2018-09-16T02:27:03.259Z,0.00
2018-09-16T02:28:03.239Z,0.00
2018-09-16T02:29:03.221Z,0.00
2018-09-16T02:30:03.197Z,0.00
2018-09-16T02:31:03.171Z,0.00
2018-09-16T02:32:03.166Z,0.00
2018-09-16T02:33:03.131Z,0.00
2018-09-16T02:34:03.112Z,0.00
2018-09-16T02:35:03.090Z,0.00
2018-09-16T02:36:03.072Z,0.00
2018-09-16T02:37:03.050Z,0.00
2018-09-16T02:38:03.022Z,0.00
2018-09-16T02:39:03.033Z,0.00
2018-09-16T02:40:02.984Z,0.00
2018-09-16T02:41:02.957Z,0.00
2018-09-16T02:42:02.942Z,0.00
2018-09-16T02:43:02.919Z,0.00
2018-09-16T02:44:02.908Z,0.00
2018-09-16T02:45:02.876Z,0.00
2018-09-16T02:46:02.858Z,0.00
2018-09-16T02:47:02.842Z,0.00
2018-09-16T02:48:02.823Z,0.00
2018-09-16T02:49:02.789Z,0.00
2018-09-16T02:50:02.768Z,0.00
2018-09-16T02:51:02.763Z,0.00
2018-09-16T02:52:02.734Z,0.00
2018-09-16T02:53:02.711Z,0.00
2018-09-16T02:54:02.695Z,0.00
2018-09-16T02:55:02.677Z,0.00
2018-09-16T02:56:02.654Z,0.00
2018-09-16T02:57:02.628Z,0.00
2018-09-16T02:58:02.607Z,0.00
2018-09-16T02:59:02.592Z,0.00
2018-09-16T03:00:02.571Z,0.00
2018-09-16T03:01:02.542Z,0.00
2018-09-16T03:02:02.523Z,0.00
2018-09-16T03:03:02.508Z,0.00
2018-09-16T03:04:02.486Z,0.00
2018-09-16T03:05:02.462Z,0.00
2018-09-16T03:06:02.442Z,0.00
2018-09-16T03:07:02.419Z,0.00
2018-09-16T03:08:02.398Z,0.00
2018-09-16T03:09:02.383Z,0.00
2018-09-16T03:10:02.356Z,0.00
2018-09-16T03:11:02.334Z,0.00
2018-09-16T03:12:02.315Z,0.00
2018-09-16T03:13:02.295Z,0.00
2018-09-16T03:14:02.272Z,0.00
2018-09-16T03:15:02.254Z,0.00
2018-09-16T03:16:02.226Z,0.00
2018-09-16T03:17:02.212Z,0.00
2018-09-16T03:18:02.189Z,0.00
2018-09-16T03:19:02.169Z,0.00
2018-09-16T03:20:02.144Z,0.00
2018-09-16T03:21:02.126Z,0.00
2018-09-16T03:22:02.105Z,0.00
2018-09-16T03:23:02.081Z,0.00
2018-09-16T03:24:02.069Z,0.00
2018-09-16T03:25:02.044Z,0.00
2018-09-16T03:26:02.024Z,0.00
2018-09-16T03:27:02.001Z,0.00
2018-09-16T03:28:01.983Z,0.00
2018-09-16T03:29:01.962Z,0.00
2018-09-16T03:30:01.941Z,0.00
2018-09-16T03:31:01.920Z,0.00
2018-09-16T03:32:02.000Z,0.00
2018-09-16T03:33:01.877Z,0.00
2018-09-16T03:34:01.855Z,0.00
2018-09-16T03:35:01.838Z,0.00
2018-09-16T03:36:01.813Z,0.00
2018-09-16T03:37:01.797Z,0.00
2018-09-16T03:38:01.770Z,0.00
2018-09-16T03:39:01.751Z,0.00
2018-09-16T03:40:01.731Z,0.00
2018-09-16T03:41:01.710Z,0.00
2018-09-16T03:42:01.689Z,0.00
2018-09-16T03:43:01.666Z,0.00
2018-09-16T03:44:01.655Z,0.00
2018-09-16T03:45:01.627Z,0.00
2018-09-16T03:46:01.607Z,0.00
2018-09-16T03:47:01.586Z,0.00
2018-09-16T03:48:01.568Z,0.00
2018-09-16T03:49:01.546Z,0.00
2018-09-16T03:50:01.524Z,0.00
2018-09-16T03:51:01.550Z,0.00
2018-09-16T03:52:01.481Z,0.00
2018-09-16T03:53:01.460Z,0.00
2018-09-16T03:54:01.440Z,0.00
2018-09-16T03:55:01.444Z,0.00
2018-09-16T03:56:01.397Z,0.00
2018-09-16T03:57:01.378Z,0.00
2018-09-16T03:58:01.354Z,0.00
2018-09-16T03:59:01.338Z,0.00
2018-09-16T04:00:01.315Z,0.00
2018-09-16T04:01:01.291Z,0.00
2018-09-16T04:02:01.276Z,0.00
2018-09-16T04:03:01.251Z,0.00
2018-09-16T04:04:01.228Z,0.00
2018-09-16T04:05:01.214Z,0.00
2018-09-16T04:06:01.195Z,0.00
2018-09-16T04:07:01.166Z,0.00
2018-09-16T04:08:01.150Z,0.00
2018-09-16T04:09:01.122Z,0.00
2018-09-16T04:10:01.107Z,0.00
2018-09-16T04:11:01.089Z,0.00
2018-09-16T04:12:01.063Z,0.00
2018-09-16T04:13:01.043Z,0.00
2018-09-16T04:14:01.117Z,0.00
2018-09-16T04:15:01.006Z,0.00
2018-09-16T04:16:00.981Z,0.00
2018-09-16T04:17:00.963Z,0.00
2018-09-16T04:18:00.933Z,0.00
2018-09-16T04:19:00.918Z,0.00
2018-09-16T04:20:00.895Z,0.00
2018-09-16T04:21:00.894Z,0.00
2018-09-16T04:22:00.856Z,0.00
2018-09-16T04:23:00.833Z,0.00
2018-09-16T04:24:00.813Z,0.00
2018-09-16T04:25:00.792Z,0.00
2018-09-16T04:26:00.771Z,0.00
2018-09-16T04:27:00.750Z,0.00
2018-09-16T04:28:00.731Z,0.00
2018-09-16T04:29:00.708Z,0.00
2018-09-16T04:30:00.690Z,0.00
2018-09-16T04:31:00.666Z,0.00
2018-09-16T04:32:00.646Z,0.00
2018-09-16T04:33:00.625Z,0.00
2018-09-16T04:34:00.597Z,0.00
2018-09-16T04:35:00.583Z,0.00
2018-09-16T04:36:00.566Z,0.00
2018-09-16T04:37:00.544Z,0.00
2018-09-16T04:38:00.522Z,0.00
2018-09-16T04:39:00.501Z,0.00
2018-09-16T04:40:00.492Z,0.00
2018-09-16T04:41:00.468Z,0.00
2018-09-16T04:42:00.436Z,0.00
2018-09-16T04:43:00.419Z,0.00
2018-09-16T04:44:00.398Z,0.00
2018-09-16T04:45:00.379Z,0.00
2018-09-16T04:46:00.358Z,0.00
2018-09-16T04:47:00.329Z,0.00
2018-09-16T04:48:00.313Z,0.00
2018-09-16T04:49:00.293Z,0.00
2018-09-16T04:50:00.360Z,0.00
2018-09-16T04:51:00.268Z,0.00
2018-09-16T04:52:00.225Z,0.00
2018-09-16T04:53:00.209Z,0.00
2018-09-16T04:54:00.186Z,0.00
2018-09-16T04:55:00.168Z,0.00
2018-09-16T04:56:00.145Z,0.00
2018-09-16T04:57:00.129Z,0.00
2018-09-16T04:58:00.103Z,0.00
2018-09-16T04:59:00.082Z,0.00
2018-09-16T05:00:00.063Z,0.00
2018-09-16T05:01:00.044Z,0.00
2018-09-16T05:02:00.019Z,0.00
2018-09-16T05:02:59.998Z,0.00
2018-09-16T05:03:59.985Z,0.00
2018-09-16T05:04:59.959Z,5.63
2018-09-16T05:05:59.938Z,5.63
2018-09-16T05:06:59.915Z,5.63
2018-09-16T05:07:59.897Z,5.63
2018-09-16T05:08:59.882Z,5.63
2018-09-16T05:09:59.853Z,5.63
2018-09-16T05:10:59.830Z,5.63
2018-09-16T05:11:59.811Z,5.63
2018-09-16T05:12:59.794Z,11.25
2018-09-16T05:13:59.770Z,11.25
2018-09-16T05:14:59.748Z,11.25
2018-09-16T05:15:59.728Z,11.25
2018-09-16T05:16:59.711Z,11.25
2018-09-16T05:17:59.690Z,16.88
2018-09-16T05:18:59.666Z,16.88
2018-09-16T05:19:59.646Z,16.88
2018-09-16T05:20:59.627Z,16.88
2018-09-16T05:21:59.598Z,22.50
2018-09-16T05:22:59.603Z,22.50
2018-09-16T05:23:59.561Z,28.13
2018-09-16T05:24:59.543Z,28.13
2018-09-16T05:25:59.531Z,28.13
2018-09-16T05:26:59.496Z,33.75
2018-09-16T05:27:59.477Z,33.75
2018-09-16T05:28:59.457Z,33.75
2018-09-16T05:29:59.438Z,39.38
2018-09-16T05:30:59.415Z,39.38
2018-09-16T05:31:59.407Z,39.38
2018-09-16T05:32:59.373Z,39.38
2018-09-16T05:33:59.354Z,45.00
2018-09-16T05:34:59.332Z,45.00
2018-09-16T05:35:59.313Z,45.00
2018-09-16T05:36:59.289Z,50.63
2018-09-16T05:37:59.420Z,50.63
2018-09-16T05:38:59.251Z,50.63
2018-09-16T05:39:59.230Z,50.63
2018-09-16T05:40:59.244Z,56.25
2018-09-16T05:41:59.184Z,56.25
2018-09-16T05:42:59.165Z,56.25
2018-09-16T05:43:59.154Z,61.88
2018-09-16T05:44:59.125Z,61.88
2018-09-16T05:45:59.100Z,61.88
2018-09-16T05:46:59.084Z,61.88
2018-09-16T05:47:59.063Z,67.50
2018-09-16T05:48:59.039Z,67.50
2018-09-16T05:49:59.026Z,67.50
2018-09-16T05:50:59.000Z,73.13
2018-09-16T05:51:58.993Z,73.13
2018-09-16T05:52:59.045Z,73.13
2018-09-16T05:53:58.938Z,73.13
2018-09-16T05:54:58.911Z,73.13
2018-09-16T05:55:58.889Z,78.75
2018-09-16T05:56:58.877Z,78.75
2018-09-16T05:57:58.857Z,78.75
2018-09-16T05:58:58.829Z,78.75
2018-09-16T05:59:58.833Z,78.75
2018-09-16T06:00:58.792Z,78.75
2018-09-16T06:01:58.772Z,78.75
2018-09-16T06:02:58.751Z,78.75
2018-09-16T06:03:58.730Z,84.38
2018-09-16T06:04:58.774Z,84.38
2018-09-16T06:05:58.698Z,84.38
2018-09-16T06:06:58.665Z,84.38
2018-09-16T06:07:58.649Z,84.38
2018-09-16T06:08:58.628Z,84.38
2018-09-16T06:09:58.603Z,90.00
2018-09-16T06:10:58.609Z,84.38
2018-09-16T06:11:58.582Z,90.00
2018-09-16T06:12:58.566Z,90.00
2018-09-16T06:13:58.525Z,90.00
2018-09-16T06:14:58.500Z,90.00
2018-09-16T06:15:58.485Z,101.25
2018-09-16T06:16:58.471Z,151.88
2018-09-16T06:17:58.448Z,163.13
2018-09-16T06:18:58.420Z,174.38
2018-09-16T06:19:58.397Z,151.88
2018-09-16T06:20:58.383Z,129.38
2018-09-16T06:21:58.360Z,106.88
2018-09-16T06:22:58.336Z,90.00
2018-09-16T06:23:58.320Z,90.00
2018-09-16T06:24:58.293Z,95.63
2018-09-16T06:25:58.275Z,106.88
2018-09-16T06:26:58.276Z,129.38
2018-09-16T06:27:58.243Z,129.38
2018-09-16T06:28:58.227Z,157.50
2018-09-16T06:29:58.197Z,174.38
2018-09-16T06:30:58.178Z,157.50
2018-09-16T06:31:58.152Z,168.75
2018-09-16T06:32:58.148Z,191.25
2018-09-16T06:33:58.120Z,196.88
2018-09-16T06:34:58.106Z,236.25
2018-09-16T06:35:58.080Z,225.00
2018-09-16T06:36:58.064Z,241.88
2018-09-16T06:37:58.065Z,270.00
2018-09-16T06:38:58.020Z,292.50
2018-09-16T06:39:58.004Z,303.75
2018-09-16T06:40:57.981Z,320.63
2018-09-16T06:41:57.973Z,343.13
2018-09-16T06:42:57.936Z,371.25
2018-09-16T06:43:57.924Z,388.13
2018-09-16T06:44:57.898Z,405.00
2018-09-16T06:45:57.886Z,427.50
2018-09-16T06:46:57.861Z,444.38
2018-09-16T06:47:57.854Z,472.50
2018-09-16T06:48:57.827Z,489.38
2018-09-16T06:49:57.809Z,478.13
2018-09-16T06:50:57.802Z,489.38
2018-09-16T06:51:57.769Z,511.88
2018-09-16T06:52:57.752Z,528.75
2018-09-16T06:53:57.740Z,540.00
2018-09-16T06:54:57.713Z,556.88
2018-09-16T06:55:57.701Z,551.25
2018-09-16T06:56:57.695Z,540.00
2018-09-16T06:57:57.663Z,511.88
2018-09-16T06:58:57.643Z,523.13
2018-09-16T06:59:57.624Z,517.50
2018-09-16T07:00:57.693Z,517.50
2018-09-16T07:01:57.586Z,523.13
2018-09-16T07:02:57.569Z,528.75
2018-09-16T07:03:57.559Z,545.63
2018-09-16T07:04:57.538Z,517.50
2018-09-16T07:05:57.519Z,585.00
2018-09-16T07:06:57.506Z,596.25
2018-09-16T07:07:57.478Z,579.38
2018-09-16T07:08:57.472Z,438.75
2018-09-16T07:09:57.446Z,275.63
2018-09-16T07:10:57.423Z,225.00
2018-09-16T07:11:57.415Z,213.75
2018-09-16T07:12:57.405Z,202.50
2018-09-16T07:13:57.381Z,191.25
2018-09-16T07:14:57.364Z,180.00
2018-09-16T07:15:57.347Z,185.63
2018-09-16T07:16:57.344Z,174.38
2018-09-16T07:17:57.314Z,174.38
2018-09-16T07:18:57.290Z,180.00
2018-09-16T07:19:57.280Z,157.50
2018-09-16T07:20:57.265Z,157.50
2018-09-16T07:21:57.263Z,151.88
2018-09-16T07:22:57.220Z,146.25
2018-09-16T07:23:57.214Z,146.25
2018-09-16T07:24:57.192Z,135.00
2018-09-16T07:25:57.177Z,129.38
2018-09-16T07:26:57.219Z,129.38
2018-09-16T07:27:57.146Z,129.38
2018-09-16T07:28:57.130Z,129.38
2018-09-16T07:29:57.107Z,140.63
2018-09-16T07:30:57.096Z,140.63
2018-09-16T07:31:57.081Z,140.63
2018-09-16T07:32:57.058Z,140.63
2018-09-16T07:33:57.070Z,140.63
2018-09-16T07:34:57.030Z,135.00
2018-09-16T07:35:57.013Z,146.25
2018-09-16T07:36:56.998Z,146.25
2018-09-16T07:37:56.969Z,146.25
2018-09-16T07:38:56.950Z,140.63
2018-09-16T07:39:56.932Z,140.63
2018-09-16T07:40:56.918Z,140.63
2018-09-16T07:41:56.900Z,140.63
2018-09-16T07:42:56.879Z,123.75
2018-09-16T07:43:56.870Z,135.00
2018-09-16T07:44:56.845Z,146.25
2018-09-16T07:45:56.826Z,146.25
2018-09-16T07:46:56.805Z,151.88
2018-09-16T07:47:56.807Z,151.88
2018-09-16T07:48:56.779Z,157.50
2018-09-16T07:49:56.755Z,157.50
2018-09-16T07:50:56.744Z,157.50
2018-09-16T07:51:56.723Z,151.88
2018-09-16T07:52:56.721Z,151.88
2018-09-16T07:53:56.690Z,151.88
2018-09-16T07:54:56.671Z,151.88
2018-09-16T07:55:56.669Z,151.88
2018-09-16T07:56:56.639Z,146.25
2018-09-16T07:57:56.622Z,146.25
2018-09-16T07:58:56.593Z,151.88
2018-09-16T07:59:56.584Z,151.88
2018-09-16T08:00:56.562Z,151.88
2018-09-16T08:01:56.571Z,157.50
2018-09-16T08:02:56.530Z,157.50
2018-09-16T08:03:56.511Z,163.13
2018-09-16T08:04:56.497Z,163.13
2018-09-16T08:05:56.486Z,163.13
2018-09-16T08:06:56.563Z,163.13
2018-09-16T08:07:56.452Z,163.13
2018-09-16T08:08:56.421Z,163.13
2018-09-16T08:09:56.406Z,163.13
2018-09-16T08:10:56.381Z,163.13
2018-09-16T08:11:56.372Z,163.13
2018-09-16T08:12:56.367Z,163.13
2018-09-16T08:13:56.331Z,163.13
2018-09-16T08:14:56.316Z,163.13
2018-09-16T08:15:56.299Z,163.13
2018-09-16T08:16:56.324Z,163.13
2018-09-16T08:17:56.267Z,157.50
2018-09-16T08:18:56.239Z,157.50
2018-09-16T08:19:56.227Z,157.50
2018-09-16T08:20:56.283Z,157.50
2018-09-16T08:21:56.219Z,157.50
2018-09-16T08:22:56.335Z,157.50
2018-09-16T08:23:56.209Z,163.13
2018-09-16T08:24:56.160Z,157.50
2018-09-16T08:25:56.218Z,168.75
2018-09-16T08:26:56.106Z,163.13
2018-09-16T08:27:56.093Z,163.13
2018-09-16T08:28:56.072Z,163.13
2018-09-16T08:29:56.062Z,168.75
2018-09-16T08:30:56.033Z,168.75
2018-09-16T08:31:56.023Z,168.75
2018-09-16T08:32:56.010Z,168.75
2018-09-16T08:33:55.981Z,168.75
2018-09-16T08:34:55.984Z,168.75
2018-09-16T08:35:55.957Z,168.75
2018-09-16T08:36:55.939Z,168.75
2018-09-16T08:37:55.959Z,174.38
2018-09-16T08:38:55.894Z,174.38
2018-09-16T08:39:55.880Z,174.38
2018-09-16T08:40:55.873Z,180.00
2018-09-16T08:41:55.846Z,174.38
2018-09-16T08:42:55.849Z,185.63
2018-09-16T08:43:55.824Z,191.25
2018-09-16T08:44:55.796Z,196.88
2018-09-16T08:45:55.785Z,196.88
2018-09-16T08:46:55.760Z,196.88
2018-09-16T08:47:55.751Z,202.50
2018-09-16T08:48:55.735Z,202.50
2018-09-16T08:49:55.717Z,208.13
2018-09-16T08:50:55.700Z,219.38
2018-09-16T08:51:55.680Z,225.00
2018-09-16T08:52:55.660Z,236.25
2018-09-16T08:53:55.645Z,241.88
2018-09-16T08:54:55.640Z,241.88
2018-09-16T08:55:55.613Z,247.50
2018-09-16T08:56:55.612Z,247.50
2018-09-16T08:57:55.600Z,247.50
2018-09-16T08:58:55.565Z,241.88
2018-09-16T08:59:55.572Z,241.88
2018-09-16T09:00:55.537Z,236.25
2018-09-16T09:01:55.515Z,230.63
2018-09-16T09:02:55.496Z,219.38
2018-09-16T09:03:55.482Z,202.50
2018-09-16T09:04:55.466Z,191.25
2018-09-16T09:05:55.444Z,185.63
2018-09-16T09:06:55.437Z,180.00
2018-09-16T09:07:55.412Z,180.00
2018-09-16T09:08:55.556Z,174.38
2018-09-16T09:09:55.385Z,168.75
2018-09-16T09:10:55.363Z,168.75
2018-09-16T09:11:55.348Z,168.75
2018-09-16T09:12:55.352Z,168.75
2018-09-16T09:13:55.345Z,168.75
2018-09-16T09:14:55.328Z,163.13
2018-09-16T09:15:55.286Z,163.13
2018-09-16T09:16:55.270Z,168.75
2018-09-16T09:17:55.245Z,163.13
2018-09-16T09:18:55.237Z,163.13
2018-09-16T09:19:55.221Z,163.13
2018-09-16T09:20:55.199Z,163.13
2018-09-16T09:21:55.195Z,163.13
2018-09-16T09:22:55.185Z,163.13
2018-09-16T09:23:55.149Z,168.75
2018-09-16T09:24:55.140Z,168.75
2018-09-16T09:25:55.116Z,168.75
2018-09-16T09:26:55.110Z,168.75
2018-09-16T09:27:55.092Z,168.75
2018-09-16T09:28:55.082Z,163.13
2018-09-16T09:29:55.062Z,168.75
2018-09-16T09:30:55.046Z,163.13
2018-09-16T09:31:55.033Z,168.75
2018-09-16T09:32:55.012Z,163.13
2018-09-16T09:33:54.993Z,157.50
2018-09-16T09:34:54.983Z,157.50
2018-09-16T09:35:54.959Z,157.50
2018-09-16T09:36:54.955Z,163.13
2018-09-16T09:37:54.928Z,163.13
2018-09-16T09:38:54.917Z,163.13
2018-09-16T09:39:54.901Z,157.50
2018-09-16T09:40:54.879Z,163.13
2018-09-16T09:41:54.858Z,163.13
2018-09-16T09:42:54.903Z,163.13
2018-09-16T09:43:54.847Z,151.88
2018-09-16T09:44:54.820Z,151.88
2018-09-16T09:45:54.792Z,151.88
2018-09-16T09:46:54.783Z,163.13
2018-09-16T09:47:54.767Z,168.75
2018-09-16T09:48:54.755Z,168.75
2018-09-16T09:49:54.736Z,168.75
2018-09-16T09:50:54.724Z,168.75
2018-09-16T09:51:54.705Z,174.38
2018-09-16T09:52:54.691Z,168.75
2018-09-16T09:53:54.671Z,174.38
2018-09-16T09:54:54.656Z,180.00
2018-09-16T09:55:54.639Z,185.63
2018-09-16T09:56:54.620Z,185.63
2018-09-16T09:57:54.608Z,191.25
2018-09-16T09:58:54.625Z,191.25
2018-09-16T09:59:54.581Z,196.88
2018-09-16T10:00:54.565Z,202.50
2018-09-16T10:01:54.547Z,196.88
2018-09-16T10:02:54.531Z,208.13
2018-09-16T10:03:54.518Z,213.75
2018-09-16T10:04:54.500Z,219.38
2018-09-16T10:05:54.484Z,213.75
2018-09-16T10:06:54.466Z,219.38
2018-09-16T10:07:54.457Z,208.13
2018-09-16T10:08:54.439Z,202.50
2018-09-16T10:09:54.420Z,202.50
2018-09-16T10:10:54.399Z,208.13
2018-09-16T10:11:54.391Z,213.75
2018-09-16T10:12:54.376Z,225.00
2018-09-16T10:13:54.355Z,230.63
2018-09-16T10:14:54.344Z,236.25
2018-09-16T10:15:54.325Z,241.88
2018-09-16T10:16:54.313Z,264.38
2018-09-16T10:17:54.299Z,264.38
2018-09-16T10:18:54.281Z,275.63
2018-09-16T10:19:54.267Z,281.25
2018-09-16T10:20:54.252Z,286.88
2018-09-16T10:21:54.232Z,292.50
2018-09-16T10:22:54.216Z,281.25
2018-09-16T10:23:54.202Z,281.25
2018-09-16T10:24:54.194Z,286.88
2018-09-16T10:25:54.171Z,292.50
2018-09-16T10:26:54.159Z,292.50
2018-09-16T10:27:54.165Z,292.50
2018-09-16T10:28:54.127Z,298.13
2018-09-16T10:29:54.110Z,309.38
2018-09-16T10:30:54.096Z,320.63
2018-09-16T10:31:54.083Z,326.25
2018-09-16T10:32:54.068Z,326.25
2018-09-16T10:33:54.050Z,315.00
2018-09-16T10:34:54.032Z,331.88
2018-09-16T10:35:54.018Z,337.50
2018-09-16T10:36:54.016Z,348.75
2018-09-16T10:37:53.993Z,365.63
2018-09-16T10:38:54.043Z,376.88
2018-09-16T10:39:53.962Z,376.88
2018-09-16T10:40:53.948Z,388.13
2018-09-16T10:41:53.932Z,393.75
2018-09-16T10:42:53.917Z,388.13
2018-09-16T10:43:53.901Z,388.13
2018-09-16T10:44:53.892Z,388.13
2018-09-16T10:45:54.057Z,388.13
2018-09-16T10:46:53.860Z,388.13
2018-09-16T10:47:54.053Z,382.50
2018-09-16T10:48:53.831Z,376.88
2018-09-16T10:49:53.813Z,376.88
2018-09-16T10:50:54.000Z,376.88
2018-09-16T10:51:53.784Z,360.00
2018-09-16T10:52:53.774Z,376.88
2018-09-16T10:53:53.757Z,376.88
2018-09-16T10:54:53.815Z,382.50
2018-09-16T10:55:53.734Z,382.50
2018-09-16T10:56:53.728Z,388.13
2018-09-16T10:57:53.706Z,399.38
2018-09-16T10:58:53.689Z,405.00
2018-09-16T10:59:53.677Z,427.50
2018-09-16T11:00:53.663Z,438.75
2018-09-16T11:01:53.645Z,450.00
2018-09-16T11:02:53.632Z,450.00
2018-09-16T11:03:53.622Z,455.63
2018-09-16T11:04:53.612Z,450.00
2018-09-16T11:05:53.592Z,450.00
2018-09-16T11:06:53.577Z,455.63
2018-09-16T11:07:53.581Z,455.63
2018-09-16T11:08:53.548Z,438.75
2018-09-16T11:09:53.543Z,427.50
2018-09-16T11:10:53.527Z,433.13
2018-09-16T11:11:53.511Z,433.13
2018-09-16T11:12:53.497Z,438.75
2018-09-16T11:13:53.484Z,444.38
2018-09-16T11:14:53.470Z,444.38
2018-09-16T11:15:53.505Z,450.00
2018-09-16T11:16:53.442Z,455.63
2018-09-16T11:17:53.431Z,450.00
2018-09-16T11:18:53.420Z,455.63
2018-09-16T11:19:53.401Z,455.63
2018-09-16T11:20:53.392Z,455.63
2018-09-16T11:21:53.568Z,450.00
2018-09-16T11:22:53.361Z,455.63
2018-09-16T11:23:53.472Z,450.00
2018-09-16T11:24:53.338Z,450.00
2018-09-16T11:25:53.332Z,450.00
2018-09-16T11:26:53.304Z,438.75
2018-09-16T11:27:53.293Z,433.13
2018-09-16T11:28:53.280Z,427.50
2018-09-16T11:29:53.287Z,427.50
2018-09-16T11:30:53.305Z,421.88
2018-09-16T11:31:53.244Z,427.50
2018-09-16T11:32:53.235Z,433.13
2018-09-16T11:33:53.253Z,421.88
2018-09-16T11:34:53.196Z,427.50
2018-09-16T11:35:53.191Z,433.13
2018-09-16T11:36:53.171Z,450.00
2018-09-16T11:37:53.317Z,472.50
2018-09-16T11:38:53.156Z,466.88
2018-09-16T11:39:53.137Z,483.75
2018-09-16T11:40:53.123Z,506.25
2018-09-16T11:41:53.120Z,506.25
2018-09-16T11:42:53.110Z,528.75
2018-09-16T11:43:53.162Z,517.50
2018-09-16T11:44:53.064Z,506.25
2018-09-16T11:45:53.066Z,489.38
2018-09-16T11:46:53.046Z,478.13
2018-09-16T11:47:53.026Z,455.63
2018-09-16T11:48:53.011Z,433.13
2018-09-16T11:49:52.997Z,421.88
2018-09-16T11:50:52.986Z,410.63
2018-09-16T11:51:52.969Z,399.38
2018-09-16T11:52:53.024Z,393.75
2018-09-16T11:53:52.957Z,393.75
2018-09-16T11:54:52.935Z,393.75
2018-09-16T11:55:52.926Z,405.00
2018-09-16T11:56:52.914Z,399.38
2018-09-16T11:57:52.910Z,399.38
2018-09-16T11:58:52.887Z,405.00
2018-09-16T11:59:52.874Z,410.63
2018-09-16T12:00:52.864Z,410.63
2018-09-16T12:01:52.855Z,410.63
2018-09-16T12:02:52.831Z,410.63
2018-09-16T12:03:52.822Z,410.63
2018-09-16T12:04:52.809Z,410.63
2018-09-16T12:05:52.799Z,405.00
2018-09-16T12:06:52.784Z,421.88
2018-09-16T12:07:52.772Z,444.38
2018-09-16T12:08:52.760Z,450.00
2018-09-16T12:09:52.744Z,450.00
2018-09-16T12:10:52.732Z,450.00
2018-09-16T12:11:52.715Z,450.00
2018-09-16T12:12:52.706Z,444.38
2018-09-16T12:13:52.693Z,455.63
2018-09-16T12:14:52.681Z,444.38
2018-09-16T12:15:52.671Z,438.75
2018-09-16T12:16:52.657Z,433.13
2018-09-16T12:17:52.644Z,455.63
2018-09-16T12:18:52.632Z,461.25
2018-09-16T12:19:52.617Z,466.88
2018-09-16T12:20:52.609Z,466.88
2018-09-16T12:21:52.591Z,466.88
2018-09-16T12:22:52.580Z,455.63
2018-09-16T12:23:52.569Z,438.75
2018-09-16T12:24:52.557Z,444.38
2018-09-16T12:25:52.536Z,433.13
2018-09-16T12:26:52.530Z,410.63
2018-09-16T12:27:52.517Z,405.00
2018-09-16T12:28:52.505Z,388.13
2018-09-16T12:29:52.489Z,382.50
2018-09-16T12:30:52.565Z,388.13
2018-09-16T12:31:52.470Z,382.50
2018-09-16T12:32:52.456Z,399.38
2018-09-16T12:33:52.441Z,399.38
2018-09-16T12:34:52.433Z,405.00
2018-09-16T12:35:52.421Z,405.00
2018-09-16T12:36:52.405Z,410.63
2018-09-16T12:37:52.393Z,421.88
2018-09-16T12:38:52.376Z,433.13
2018-09-16T12:39:52.369Z,433.13
2018-09-16T12:40:52.354Z,438.75
2018-09-16T12:41:52.342Z,438.75
2018-09-16T12:42:52.330Z,450.00
2018-09-16T12:43:52.318Z,455.63
2018-09-16T12:44:52.306Z,455.63
2018-09-16T12:45:52.284Z,461.25
2018-09-16T12:46:52.280Z,472.50
2018-09-16T12:47:52.268Z,478.13
2018-09-16T12:48:52.254Z,495.00
2018-09-16T12:49:52.244Z,506.25